sensor_id;sensor_type;location;lat;lon;timestamp;pressure;altitude;pressure_sealevel;temperature;humidity
55801;BME280;41730;51.960;20.158;2023-05-11T00:00:49;100614.64;;;10.11;44.85
55801;BME280;41730;51.960;20.158;2023-05-11T00:03:19;100618.13;;;10.13;44.95
55801;BME280;41730;51.960;20.158;2023-05-11T00:05:48;100619.92;;;9.96;45.05
55801;BME280;41730;51.960;20.158;2023-05-11T00:08:18;100613.98;;;9.98;45.29
55801;BME280;41730;51.960;20.158;2023-05-11T00:10:48;100616.70;;;10.12;45.11
55801;BME280;41730;51.960;20.158;2023-05-11T00:13:17;100619.18;;;10.13;44.81
55801;BME280;41730;51.960;20.158;2023-05-11T00:15:47;100618.04;;;10.00;44.97
55801;BME280;41730;51.960;20.158;2023-05-11T00:18:15;100613.90;;;9.94;45.19
55801;BME280;41730;51.960;20.158;2023-05-11T00:20:45;100615.19;;;9.89;45.34
55801;BME280;41730;51.960;20.158;2023-05-11T00:23:14;100612.92;;;9.79;45.76
55801;BME280;41730;51.960;20.158;2023-05-11T00:25:43;100610.49;;;9.88;45.09
55801;BME280;41730;51.960;20.158;2023-05-11T00:28:12;100610.74;;;9.85;45.62
55801;BME280;41730;51.960;20.158;2023-05-11T00:30:41;100614.73;;;9.78;45.59
55801;BME280;41730;51.960;20.158;2023-05-11T00:33:09;100611.96;;;9.80;45.44
55801;BME280;41730;51.960;20.158;2023-05-11T00:35:38;100609.71;;;9.65;45.43
55801;BME280;41730;51.960;20.158;2023-05-11T00:38:08;100609.11;;;9.56;45.82
55801;BME280;41730;51.960;20.158;2023-05-11T00:40:37;100604.70;;;9.60;45.99
55801;BME280;41730;51.960;20.158;2023-05-11T00:43:06;100603.13;;;9.72;45.74
55801;BME280;41730;51.960;20.158;2023-05-11T00:45:35;100607.10;;;9.77;45.95
55801;BME280;41730;51.960;20.158;2023-05-11T00:48:05;100604.48;;;9.80;45.46
55801;BME280;41730;51.960;20.158;2023-05-11T00:50:34;100603.71;;;9.81;45.59
55801;BME280;41730;51.960;20.158;2023-05-11T00:53:03;100599.35;;;9.75;45.37
55801;BME280;41730;51.960;20.158;2023-05-11T00:55:31;100599.85;;;9.61;45.84
55801;BME280;41730;51.960;20.158;2023-05-11T00:58:00;100600.16;;;9.60;46.15
55801;BME280;41730;51.960;20.158;2023-05-11T01:00:32;100599.72;;;9.53;45.73
55801;BME280;41730;51.960;20.158;2023-05-11T01:03:01;100601.61;;;9.42;46.11
55801;BME280;41730;51.960;20.158;2023-05-11T01:05:34;100606.77;;;9.31;46.38
55801;BME280;41730;51.960;20.158;2023-05-11T01:08:14;100600.39;;;9.32;46.44
55801;BME280;41730;51.960;20.158;2023-05-11T01:10:51;100600.94;;;9.39;46.48
55801;BME280;41730;51.960;20.158;2023-05-11T01:13:29;100603.28;;;9.21;46.46
55801;BME280;41730;51.960;20.158;2023-05-11T01:16:03;100604.11;;;9.06;46.94
55801;BME280;41730;51.960;20.158;2023-05-11T01:18:37;100599.63;;;9.10;46.79
55801;BME280;41730;51.960;20.158;2023-05-11T01:21:08;100600.14;;;9.11;46.83
55801;BME280;41730;51.960;20.158;2023-05-11T01:27:05;100600.01;;;9.18;46.84
55801;BME280;41730;51.960;20.158;2023-05-11T01:29:57;100599.26;;;9.08;46.81
55801;BME280;41730;51.960;20.158;2023-05-11T01:32:34;100604.29;;;8.94;47.08
55801;BME280;41730;51.960;20.158;2023-05-11T01:35:07;100602.06;;;9.03;46.92
55801;BME280;41730;51.960;20.158;2023-05-11T01:37:40;100604.31;;;9.13;47.01
55801;BME280;41730;51.960;20.158;2023-05-11T01:40:14;100600.60;;;9.09;46.86
55801;BME280;41730;51.960;20.158;2023-05-11T01:42:47;100598.77;;;9.00;47.16
55801;BME280;41730;51.960;20.158;2023-05-11T01:45:18;100600.95;;;8.94;46.99
55801;BME280;41730;51.960;20.158;2023-05-11T01:47:49;100600.67;;;8.83;47.64
55801;BME280;41730;51.960;20.158;2023-05-11T01:50:23;100602.02;;;8.73;47.78
55801;BME280;41730;51.960;20.158;2023-05-11T01:52:53;100601.43;;;8.74;47.77
55801;BME280;41730;51.960;20.158;2023-05-11T01:55:23;100604.52;;;8.78;47.54
55801;BME280;41730;51.960;20.158;2023-05-11T01:57:54;100603.02;;;8.82;47.66
55801;BME280;41730;51.960;20.158;2023-05-11T02:00:23;100601.38;;;8.90;47.41
55801;BME280;41730;51.960;20.158;2023-05-11T02:02:53;100601.28;;;8.89;47.39
55801;BME280;41730;51.960;20.158;2023-05-11T02:05:24;100602.92;;;8.88;47.48
55801;BME280;41730;51.960;20.158;2023-05-11T02:07:57;100603.53;;;8.87;47.20
55801;BME280;41730;51.960;20.158;2023-05-11T02:10:27;100601.67;;;8.96;47.21
55801;BME280;41730;51.960;20.158;2023-05-11T02:12:58;100600.23;;;8.92;47.25
55801;BME280;41730;51.960;20.158;2023-05-11T02:15:28;100600.80;;;9.01;47.32
55801;BME280;41730;51.960;20.158;2023-05-11T02:17:59;100600.27;;;9.09;47.21
55801;BME280;41730;51.960;20.158;2023-05-11T02:20:29;100600.11;;;9.08;47.08
55801;BME280;41730;51.960;20.158;2023-05-11T02:22:58;100602.56;;;9.06;47.02
55801;BME280;41730;51.960;20.158;2023-05-11T02:25:28;100603.10;;;9.01;47.32
55801;BME280;41730;51.960;20.158;2023-05-11T02:27:57;100599.93;;;8.86;47.44
55801;BME280;41730;51.960;20.158;2023-05-11T02:30:27;100599.67;;;8.72;47.93
55801;BME280;41730;51.960;20.158;2023-05-11T02:33:03;100600.82;;;8.63;47.90
55801;BME280;41730;51.960;20.158;2023-05-11T02:35:37;100603.70;;;8.67;47.94
55801;BME280;41730;51.960;20.158;2023-05-11T02:38:10;100601.60;;;8.77;47.81
55801;BME280;41730;51.960;20.158;2023-05-11T02:40:45;100600.00;;;8.67;48.25
55801;BME280;41730;51.960;20.158;2023-05-11T02:43:19;100599.95;;;8.60;48.28
55801;BME280;41730;51.960;20.158;2023-05-11T02:45:51;100598.38;;;8.68;48.03
55801;BME280;41730;51.960;20.158;2023-05-11T02:48:23;100600.35;;;8.75;48.08
55801;BME280;41730;51.960;20.158;2023-05-11T02:50:54;100597.95;;;8.85;47.56
55801;BME280;41730;51.960;20.158;2023-05-11T02:53:27;100595.40;;;8.93;47.48
55801;BME280;41730;51.960;20.158;2023-05-11T02:55:58;100597.43;;;9.04;47.45
55801;BME280;41730;51.960;20.158;2023-05-11T02:58:28;100597.16;;;9.03;47.25
55801;BME280;41730;51.960;20.158;2023-05-11T03:00:58;100599.42;;;8.86;47.56
55801;BME280;41730;51.960;20.158;2023-05-11T03:03:28;100595.61;;;8.86;47.70
55801;BME280;41730;51.960;20.158;2023-05-11T03:05:57;100602.31;;;8.97;47.81
55801;BME280;41730;51.960;20.158;2023-05-11T03:08:26;100601.05;;;8.85;47.85
55801;BME280;41730;51.960;20.158;2023-05-11T03:10:55;100607.35;;;8.78;48.22
55801;BME280;41730;51.960;20.158;2023-05-11T03:13:25;100604.14;;;8.89;48.46
55801;BME280;41730;51.960;20.158;2023-05-11T03:15:55;100605.29;;;9.12;48.17
55801;BME280;41730;51.960;20.158;2023-05-11T03:18:25;100602.55;;;9.29;47.89
55801;BME280;41730;51.960;20.158;2023-05-11T03:20:56;100605.41;;;9.37;47.85
55801;BME280;41730;51.960;20.158;2023-05-11T03:23:26;100602.97;;;9.50;47.83
55801;BME280;41730;51.960;20.158;2023-05-11T03:25:56;100602.40;;;9.77;47.76
55801;BME280;41730;51.960;20.158;2023-05-11T03:28:25;100604.67;;;9.94;47.76
55801;BME280;41730;51.960;20.158;2023-05-11T03:30:55;100608.00;;;10.27;47.52
55801;BME280;41730;51.960;20.158;2023-05-11T03:33:24;100604.13;;;10.67;47.14
55801;BME280;41730;51.960;20.158;2023-05-11T03:35:53;100606.48;;;11.15;46.64
55801;BME280;41730;51.960;20.158;2023-05-11T03:38:23;100606.38;;;11.54;46.33
55801;BME280;41730;51.960;20.158;2023-05-11T03:40:56;100609.91;;;12.02;46.08
55801;BME280;41730;51.960;20.158;2023-05-11T03:43:27;100612.29;;;12.60;45.14
55801;BME280;41730;51.960;20.158;2023-05-11T03:45:58;100610.59;;;13.13;44.64
55801;BME280;41730;51.960;20.158;2023-05-11T03:48:32;100607.02;;;13.49;44.37
55801;BME280;41730;51.960;20.158;2023-05-11T03:51:09;100602.87;;;13.98;43.56
55801;BME280;41730;51.960;20.158;2023-05-11T03:53:45;100604.91;;;14.22;42.96
55801;BME280;41730;51.960;20.158;2023-05-11T03:56:24;100604.30;;;14.29;42.40
55801;BME280;41730;51.960;20.158;2023-05-11T03:59:00;100609.34;;;14.47;41.99
55801;BME280;41730;51.960;20.158;2023-05-11T04:01:39;100613.73;;;14.79;41.70
55801;BME280;41730;51.960;20.158;2023-05-11T04:04:16;100610.81;;;15.21;41.28
55801;BME280;41730;51.960;20.158;2023-05-11T04:06:48;100616.30;;;15.65;40.29
55801;BME280;41730;51.960;20.158;2023-05-11T04:09:18;100611.59;;;15.88;39.41
55801;BME280;41730;51.960;20.158;2023-05-11T04:11:47;100613.20;;;16.01;39.34
55801;BME280;41730;51.960;20.158;2023-05-11T04:14:17;100617.68;;;16.18;38.52
55801;BME280;41730;51.960;20.158;2023-05-11T04:16:47;100616.48;;;16.16;38.43
55801;BME280;41730;51.960;20.158;2023-05-11T04:19:16;100615.11;;;16.19;38.18
55801;BME280;41730;51.960;20.158;2023-05-11T04:21:45;100616.16;;;16.22;37.81
55801;BME280;41730;51.960;20.158;2023-05-11T04:24:15;100612.05;;;16.31;38.10
55801;BME280;41730;51.960;20.158;2023-05-11T04:26:44;100612.59;;;16.40;37.99
55801;BME280;41730;51.960;20.158;2023-05-11T04:29:13;100617.23;;;16.59;37.44
55801;BME280;41730;51.960;20.158;2023-05-11T04:31:42;100615.73;;;16.74;37.41
55801;BME280;41730;51.960;20.158;2023-05-11T04:34:11;100616.38;;;17.06;37.02
55801;BME280;41730;51.960;20.158;2023-05-11T04:36:39;100616.02;;;17.19;37.00
55801;BME280;41730;51.960;20.158;2023-05-11T04:39:08;100614.08;;;17.35;36.45
55801;BME280;41730;51.960;20.158;2023-05-11T04:41:37;100615.39;;;17.54;36.37
55801;BME280;41730;51.960;20.158;2023-05-11T04:44:07;100614.45;;;17.88;35.79
55801;BME280;41730;51.960;20.158;2023-05-11T04:46:36;100612.45;;;17.99;35.84
55801;BME280;41730;51.960;20.158;2023-05-11T04:49:06;100620.20;;;18.24;35.57
55801;BME280;41730;51.960;20.158;2023-05-11T04:51:35;100624.52;;;18.41;35.38
55801;BME280;41730;51.960;20.158;2023-05-11T04:54:04;100622.39;;;18.62;34.73
55801;BME280;41730;51.960;20.158;2023-05-11T04:56:33;100624.27;;;18.72;34.17
55801;BME280;41730;51.960;20.158;2023-05-11T04:59:07;100622.89;;;18.66;34.02
55801;BME280;41730;51.960;20.158;2023-05-11T05:01:36;100629.91;;;18.73;33.66
55801;BME280;41730;51.960;20.158;2023-05-11T05:04:05;100628.41;;;18.93;33.09
55801;BME280;41730;51.960;20.158;2023-05-11T05:06:35;100627.84;;;19.01;32.66
55801;BME280;41730;51.960;20.158;2023-05-11T05:09:05;100626.64;;;19.04;32.45
55801;BME280;41730;51.960;20.158;2023-05-11T05:11:34;100627.09;;;18.97;32.05
55801;BME280;41730;51.960;20.158;2023-05-11T05:14:03;100630.85;;;19.17;32.18
55801;BME280;41730;51.960;20.158;2023-05-11T05:16:32;100631.27;;;19.33;31.55
55801;BME280;41730;51.960;20.158;2023-05-11T05:19:01;100629.85;;;19.36;31.38
55801;BME280;41730;51.960;20.158;2023-05-11T05:21:31;100630.05;;;19.48;31.21
55801;BME280;41730;51.960;20.158;2023-05-11T05:24:01;100627.16;;;19.47;31.44
55801;BME280;41730;51.960;20.158;2023-05-11T05:26:31;100632.60;;;19.40;31.56
55801;BME280;41730;51.960;20.158;2023-05-11T05:29:00;100631.43;;;19.47;31.61
55801;BME280;41730;51.960;20.158;2023-05-11T05:31:29;100632.57;;;19.57;31.38
55801;BME280;41730;51.960;20.158;2023-05-11T05:33:58;100636.75;;;19.70;31.26
55801;BME280;41730;51.960;20.158;2023-05-11T05:36:27;100639.86;;;19.87;31.12
55801;BME280;41730;51.960;20.158;2023-05-11T05:38:56;100638.95;;;20.12;30.86
55801;BME280;41730;51.960;20.158;2023-05-11T05:41:25;100637.59;;;20.31;30.23
55801;BME280;41730;51.960;20.158;2023-05-11T05:43:54;100639.48;;;20.39;29.97
55801;BME280;41730;51.960;20.158;2023-05-11T05:46:23;100643.44;;;20.42;29.76
55801;BME280;41730;51.960;20.158;2023-05-11T05:48:52;100644.73;;;20.60;29.50
55801;BME280;41730;51.960;20.158;2023-05-11T05:51:21;100646.70;;;20.72;28.90
55801;BME280;41730;51.960;20.158;2023-05-11T05:53:50;100642.23;;;20.78;28.51
55801;BME280;41730;51.960;20.158;2023-05-11T05:56:18;100643.54;;;20.70;28.42
55801;BME280;41730;51.960;20.158;2023-05-11T05:58:48;100643.70;;;20.70;28.61
55801;BME280;41730;51.960;20.158;2023-05-11T06:01:17;100647.35;;;20.69;28.34
55801;BME280;41730;51.960;20.158;2023-05-11T06:03:46;100645.45;;;20.75;28.47
55801;BME280;41730;51.960;20.158;2023-05-11T06:06:15;100646.19;;;20.75;28.15
55801;BME280;41730;51.960;20.158;2023-05-11T06:08:44;100642.21;;;20.58;27.40
55801;BME280;41730;51.960;20.158;2023-05-11T06:11:13;100645.53;;;20.47;27.64
55801;BME280;41730;51.960;20.158;2023-05-11T06:13:43;100639.77;;;20.31;28.05
55801;BME280;41730;51.960;20.158;2023-05-11T06:16:11;100649.23;;;20.37;28.38
55801;BME280;41730;51.960;20.158;2023-05-11T06:18:40;100648.41;;;20.37;28.22
55801;BME280;41730;51.960;20.158;2023-05-11T06:21:09;100646.67;;;20.46;27.86
55801;BME280;41730;51.960;20.158;2023-05-11T06:23:38;100647.35;;;20.40;27.50
55801;BME280;41730;51.960;20.158;2023-05-11T06:26:08;100647.29;;;20.18;27.54
55801;BME280;41730;51.960;20.158;2023-05-11T06:28:36;100650.10;;;19.88;27.63
55801;BME280;41730;51.960;20.158;2023-05-11T06:31:06;100653.81;;;19.60;27.62
55801;BME280;41730;51.960;20.158;2023-05-11T06:33:35;100648.85;;;19.46;27.79
55801;BME280;41730;51.960;20.158;2023-05-11T06:36:08;100654.55;;;19.36;27.82
55801;BME280;41730;51.960;20.158;2023-05-11T06:38:37;100649.79;;;19.17;27.83
55801;BME280;41730;51.960;20.158;2023-05-11T06:41:05;100652.29;;;19.07;27.97
55801;BME280;41730;51.960;20.158;2023-05-11T06:43:36;100650.23;;;19.06;28.25
55801;BME280;41730;51.960;20.158;2023-05-11T06:46:06;100651.23;;;19.02;28.31
55801;BME280;41730;51.960;20.158;2023-05-11T06:48:37;100650.34;;;19.21;28.34
55801;BME280;41730;51.960;20.158;2023-05-11T06:51:09;100651.58;;;19.29;28.30
55801;BME280;41730;51.960;20.158;2023-05-11T06:53:39;100648.98;;;19.44;28.12
55801;BME280;41730;51.960;20.158;2023-05-11T06:56:08;100647.25;;;19.64;28.05
55801;BME280;41730;51.960;20.158;2023-05-11T06:58:37;100647.10;;;19.83;27.58
55801;BME280;41730;51.960;20.158;2023-05-11T07:01:06;100647.57;;;20.02;26.70
55801;BME280;41730;51.960;20.158;2023-05-11T07:03:35;100648.16;;;19.94;26.61
55801;BME280;41730;51.960;20.158;2023-05-11T07:06:05;100646.83;;;19.77;26.84
55801;BME280;41730;51.960;20.158;2023-05-11T07:08:34;100650.55;;;19.84;26.91
55801;BME280;41730;51.960;20.158;2023-05-11T07:11:03;100646.38;;;19.86;26.86
55801;BME280;41730;51.960;20.158;2023-05-11T07:13:32;100645.49;;;19.72;26.68
55801;BME280;41730;51.960;20.158;2023-05-11T07:16:01;100639.98;;;19.68;27.09
55801;BME280;41730;51.960;20.158;2023-05-11T07:18:30;100638.58;;;19.93;27.24
55801;BME280;41730;51.960;20.158;2023-05-11T07:21:00;100626.98;;;20.10;26.61
55801;BME280;41730;51.960;20.158;2023-05-11T07:23:28;100636.17;;;20.17;26.54
55801;BME280;41730;51.960;20.158;2023-05-11T07:25:57;100635.76;;;20.19;26.36
55801;BME280;41730;51.960;20.158;2023-05-11T07:28:26;100635.10;;;20.30;26.52
55801;BME280;41730;51.960;20.158;2023-05-11T07:30:55;100639.23;;;20.50;26.58
55801;BME280;41730;51.960;20.158;2023-05-11T07:33:24;100644.33;;;20.62;26.53
55801;BME280;41730;51.960;20.158;2023-05-11T07:35:53;100643.27;;;20.56;26.58
55801;BME280;41730;51.960;20.158;2023-05-11T07:38:22;100639.62;;;20.47;26.39
55801;BME280;41730;51.960;20.158;2023-05-11T07:40:52;100643.17;;;20.44;26.82
55801;BME280;41730;51.960;20.158;2023-05-11T07:43:21;100643.34;;;20.17;27.30
55801;BME280;41730;51.960;20.158;2023-05-11T07:45:50;100643.91;;;20.00;27.58
55801;BME280;41730;51.960;20.158;2023-05-11T07:48:20;100643.11;;;20.03;28.11
55801;BME280;41730;51.960;20.158;2023-05-11T07:50:49;100640.85;;;20.24;28.33
55801;BME280;41730;51.960;20.158;2023-05-11T07:53:18;100642.83;;;20.35;27.67
55801;BME280;41730;51.960;20.158;2023-05-11T07:55:48;100640.67;;;20.35;27.49
55801;BME280;41730;51.960;20.158;2023-05-11T07:58:19;100641.22;;;20.27;27.68
55801;BME280;41730;51.960;20.158;2023-05-11T08:00:48;100644.83;;;20.12;27.87
55801;BME280;41730;51.960;20.158;2023-05-11T08:03:17;100646.84;;;19.99;28.13
55801;BME280;41730;51.960;20.158;2023-05-11T08:05:46;100641.29;;;19.92;27.90
55801;BME280;41730;51.960;20.158;2023-05-11T08:08:16;100640.23;;;19.68;28.11
55801;BME280;41730;51.960;20.158;2023-05-11T08:10:45;100645.70;;;19.75;28.52
55801;BME280;41730;51.960;20.158;2023-05-11T08:13:14;100642.31;;;19.75;28.21
55801;BME280;41730;51.960;20.158;2023-05-11T08:15:44;100641.89;;;19.63;28.20
55801;BME280;41730;51.960;20.158;2023-05-11T08:18:14;100639.42;;;19.47;28.53
55801;BME280;41730;51.960;20.158;2023-05-11T08:20:43;100642.34;;;19.43;28.90
55801;BME280;41730;51.960;20.158;2023-05-11T08:23:13;100631.16;;;19.40;28.99
55801;BME280;41730;51.960;20.158;2023-05-11T08:25:52;100637.33;;;19.61;28.75
55801;BME280;41730;51.960;20.158;2023-05-11T08:28:22;100636.00;;;19.74;28.75
55801;BME280;41730;51.960;20.158;2023-05-11T08:31:00;100634.14;;;19.87;28.63
55801;BME280;41730;51.960;20.158;2023-05-11T08:33:29;100634.91;;;19.88;28.45
55801;BME280;41730;51.960;20.158;2023-05-11T08:36:07;100637.83;;;19.88;28.60
55801;BME280;41730;51.960;20.158;2023-05-11T08:38:38;100629.52;;;19.87;28.61
55801;BME280;41730;51.960;20.158;2023-05-11T08:41:12;100627.96;;;19.87;28.62
55801;BME280;41730;51.960;20.158;2023-05-11T08:43:41;100630.75;;;19.92;28.70
55801;BME280;41730;51.960;20.158;2023-05-11T08:46:11;100625.23;;;19.79;28.63
55801;BME280;41730;51.960;20.158;2023-05-11T08:48:42;100622.25;;;19.70;28.83
55801;BME280;41730;51.960;20.158;2023-05-11T08:51:14;100624.27;;;19.75;29.08
55801;BME280;41730;51.960;20.158;2023-05-11T08:53:47;100618.36;;;19.79;29.13
55801;BME280;41730;51.960;20.158;2023-05-11T08:56:17;100623.27;;;19.75;29.57
55801;BME280;41730;51.960;20.158;2023-05-11T08:58:50;100622.19;;;19.76;29.28
55801;BME280;41730;51.960;20.158;2023-05-11T09:01:24;100621.14;;;19.56;29.65
55801;BME280;41730;51.960;20.158;2023-05-11T09:03:59;100623.55;;;19.53;29.76
55801;BME280;41730;51.960;20.158;2023-05-11T09:06:30;100625.27;;;19.56;30.03
55801;BME280;41730;51.960;20.158;2023-05-11T09:09:02;100627.54;;;19.56;30.02
55801;BME280;41730;51.960;20.158;2023-05-11T09:11:35;100618.66;;;19.53;30.27
55801;BME280;41730;51.960;20.158;2023-05-11T09:14:06;100617.13;;;19.58;30.50
55801;BME280;41730;51.960;20.158;2023-05-11T09:16:38;100617.14;;;19.61;30.50
55801;BME280;41730;51.960;20.158;2023-05-11T09:19:14;100622.91;;;19.61;29.78
55801;BME280;41730;51.960;20.158;2023-05-11T09:21:44;100619.91;;;19.54;29.95
55801;BME280;41730;51.960;20.158;2023-05-11T09:24:16;100625.14;;;19.71;30.09
55801;BME280;41730;51.960;20.158;2023-05-11T09:26:46;100625.06;;;19.79;30.01
55801;BME280;41730;51.960;20.158;2023-05-11T09:29:19;100630.34;;;19.83;30.00
55801;BME280;41730;51.960;20.158;2023-05-11T09:31:49;100627.98;;;19.82;29.37
55801;BME280;41730;51.960;20.158;2023-05-11T09:34:20;100624.09;;;19.80;29.12
55801;BME280;41730;51.960;20.158;2023-05-11T09:36:51;100619.09;;;19.63;29.60
55801;BME280;41730;51.960;20.158;2023-05-11T09:39:31;100619.72;;;19.69;29.82
55801;BME280;41730;51.960;20.158;2023-05-11T09:42:23;100624.89;;;19.71;29.99
55801;BME280;41730;51.960;20.158;2023-05-11T09:44:53;100623.26;;;19.75;29.63
55801;BME280;41730;51.960;20.158;2023-05-11T09:47:27;100615.38;;;19.71;29.43
55801;BME280;41730;51.960;20.158;2023-05-11T09:50:17;100610.07;;;19.88;29.43
55801;BME280;41730;51.960;20.158;2023-05-11T09:52:55;100607.49;;;20.17;29.15
55801;BME280;41730;51.960;20.158;2023-05-11T09:55:27;100607.30;;;20.17;29.27
55801;BME280;41730;51.960;20.158;2023-05-11T09:57:59;100604.29;;;20.07;29.29
55801;BME280;41730;51.960;20.158;2023-05-11T10:00:28;100599.85;;;20.00;29.27
55801;BME280;41730;51.960;20.158;2023-05-11T10:03:03;100595.95;;;20.10;29.59
55801;BME280;41730;51.960;20.158;2023-05-11T10:05:35;100598.96;;;20.08;29.16
55801;BME280;41730;51.960;20.158;2023-05-11T10:08:07;100601.75;;;20.18;29.02
55801;BME280;41730;51.960;20.158;2023-05-11T10:10:37;100601.13;;;20.25;28.70
55801;BME280;41730;51.960;20.158;2023-05-11T10:13:08;100596.69;;;20.08;28.99
55801;BME280;41730;51.960;20.158;2023-05-11T10:15:39;100592.38;;;20.08;28.98
55801;BME280;41730;51.960;20.158;2023-05-11T10:18:09;100591.79;;;20.07;29.49
55801;BME280;41730;51.960;20.158;2023-05-11T10:20:40;100585.94;;;20.04;29.31
55801;BME280;41730;51.960;20.158;2023-05-11T10:23:11;100584.42;;;19.95;29.69
55801;BME280;41730;51.960;20.158;2023-05-11T10:25:43;100591.42;;;19.90;29.98
55801;BME280;41730;51.960;20.158;2023-05-11T10:28:13;100582.98;;;20.02;29.84
55801;BME280;41730;51.960;20.158;2023-05-11T10:30:46;100584.61;;;20.05;29.99
55801;BME280;41730;51.960;20.158;2023-05-11T10:33:17;100579.39;;;20.00;29.87
55801;BME280;41730;51.960;20.158;2023-05-11T10:35:49;100585.02;;;20.07;30.05
55801;BME280;41730;51.960;20.158;2023-05-11T10:38:22;100579.40;;;20.17;29.32
55801;BME280;41730;51.960;20.158;2023-05-11T10:40:56;100578.64;;;20.16;29.64
55801;BME280;41730;51.960;20.158;2023-05-11T10:43:44;100570.98;;;20.02;29.44
55801;BME280;41730;51.960;20.158;2023-05-11T10:46:34;100570.14;;;19.71;30.27
55801;BME280;41730;51.960;20.158;2023-05-11T10:49:33;100564.85;;;19.76;30.53
55801;BME280;41730;51.960;20.158;2023-05-11T10:52:40;100562.92;;;19.95;30.21
55801;BME280;41730;51.960;20.158;2023-05-11T10:55:19;100568.75;;;20.12;30.21
55801;BME280;41730;51.960;20.158;2023-05-11T10:58:06;100558.64;;;20.30;29.82
55801;BME280;41730;51.960;20.158;2023-05-11T11:01:04;100565.42;;;20.25;29.98
55801;BME280;41730;51.960;20.158;2023-05-11T11:03:40;100557.36;;;20.38;30.06
55801;BME280;41730;51.960;20.158;2023-05-11T11:06:22;100558.77;;;20.32;30.55
55801;BME280;41730;51.960;20.158;2023-05-11T11:09:00;100560.48;;;20.43;30.17
55801;BME280;41730;51.960;20.158;2023-05-11T11:11:31;100561.62;;;20.68;29.69
55801;BME280;41730;51.960;20.158;2023-05-11T11:14:02;100562.89;;;20.83;29.86
55801;BME280;41730;51.960;20.158;2023-05-11T11:16:34;100560.27;;;20.55;30.01
55801;BME280;41730;51.960;20.158;2023-05-11T11:19:35;100560.38;;;20.41;30.04
55801;BME280;41730;51.960;20.158;2023-05-11T11:22:06;100553.82;;;20.59;29.96
55801;BME280;41730;51.960;20.158;2023-05-11T11:24:57;100557.66;;;20.70;29.80
55801;BME280;41730;51.960;20.158;2023-05-11T11:27:55;100557.25;;;20.68;29.68
55801;BME280;41730;51.960;20.158;2023-05-11T11:30:28;100558.70;;;20.80;29.60
55801;BME280;41730;51.960;20.158;2023-05-11T11:35:57;100553.90;;;20.69;29.92
55801;BME280;41730;51.960;20.158;2023-05-11T11:38:27;100556.28;;;20.60;29.94
55801;BME280;41730;51.960;20.158;2023-05-11T11:40:57;100556.93;;;20.53;30.16
55801;BME280;41730;51.960;20.158;2023-05-11T11:43:31;100554.48;;;20.52;30.11
55801;BME280;41730;51.960;20.158;2023-05-11T11:46:25;100555.48;;;20.47;30.05
55801;BME280;41730;51.960;20.158;2023-05-11T11:49:07;100554.10;;;20.58;30.16
55801;BME280;41730;51.960;20.158;2023-05-11T11:51:38;100553.02;;;20.66;30.04
55801;BME280;41730;51.960;20.158;2023-05-11T11:54:08;100551.54;;;20.76;30.04
55801;BME280;41730;51.960;20.158;2023-05-11T11:56:45;100556.39;;;20.83;29.81
55801;BME280;41730;51.960;20.158;2023-05-11T11:59:17;100552.44;;;20.76;29.80
55801;BME280;41730;51.960;20.158;2023-05-11T12:01:51;100547.44;;;20.63;29.95
55801;BME280;41730;51.960;20.158;2023-05-11T12:04:51;100546.52;;;20.65;29.91
55801;BME280;41730;51.960;20.158;2023-05-11T12:07:25;100556.29;;;20.76;29.86
55801;BME280;41730;51.960;20.158;2023-05-11T12:09:55;100549.66;;;20.82;29.77
55801;BME280;41730;51.960;20.158;2023-05-11T12:12:26;100545.80;;;20.78;29.93
55801;BME280;41730;51.960;20.158;2023-05-11T12:14:58;100547.60;;;20.81;30.22
55801;BME280;41730;51.960;20.158;2023-05-11T12:17:31;100544.99;;;20.89;29.92
55801;BME280;41730;51.960;20.158;2023-05-11T12:20:17;100546.61;;;20.72;30.36
55801;BME280;41730;51.960;20.158;2023-05-11T12:22:48;100538.70;;;20.74;30.70
55801;BME280;41730;51.960;20.158;2023-05-11T12:25:20;100541.80;;;20.75;30.59
55801;BME280;41730;51.960;20.158;2023-05-11T12:27:51;100535.90;;;20.86;30.28
55801;BME280;41730;51.960;20.158;2023-05-11T12:30:24;100528.14;;;20.96;30.45
55801;BME280;41730;51.960;20.158;2023-05-11T12:32:54;100530.81;;;21.00;30.26
55801;BME280;41730;51.960;20.158;2023-05-11T12:35:28;100533.98;;;20.96;30.51
55801;BME280;41730;51.960;20.158;2023-05-11T12:38:02;100526.98;;;20.99;30.61
55801;BME280;41730;51.960;20.158;2023-05-11T12:40:33;100524.91;;;20.95;30.72
55801;BME280;41730;51.960;20.158;2023-05-11T12:43:03;100528.10;;;20.83;30.38
55801;BME280;41730;51.960;20.158;2023-05-11T12:45:33;100523.75;;;20.77;30.52
55801;BME280;41730;51.960;20.158;2023-05-11T12:48:04;100519.85;;;20.82;30.16
55801;BME280;41730;51.960;20.158;2023-05-11T12:50:40;100522.63;;;20.86;30.33
55801;BME280;41730;51.960;20.158;2023-05-11T12:53:14;100522.55;;;20.98;30.39
55801;BME280;41730;51.960;20.158;2023-05-11T12:55:44;100520.98;;;21.11;30.09
55801;BME280;41730;51.960;20.158;2023-05-11T12:58:25;100528.10;;;21.17;30.04
55801;BME280;41730;51.960;20.158;2023-05-11T13:00:56;100517.48;;;21.06;30.28
55801;BME280;41730;51.960;20.158;2023-05-11T13:03:27;100516.02;;;21.05;30.70
55801;BME280;41730;51.960;20.158;2023-05-11T13:06:05;100517.36;;;21.33;30.09
55801;BME280;41730;51.960;20.158;2023-05-11T13:08:36;100511.77;;;21.33;29.35
55801;BME280;41730;51.960;20.158;2023-05-11T13:11:18;100513.73;;;21.10;29.85
55801;BME280;41730;51.960;20.158;2023-05-11T13:13:49;100512.73;;;21.05;30.28